createdAt,value
2023-02-06T00:01:32.693Z,3.41
2023-02-06T00:04:17.894Z,3.29
2023-02-06T00:07:02.731Z,3.54
2023-02-06T00:09:47.856Z,3.37
2023-02-06T00:12:32.825Z,3.46
2023-02-06T00:15:18.101Z,3.26
2023-02-06T00:18:02.965Z,3.24
2023-02-06T00:20:48.127Z,3.15
2023-02-06T00:23:32.961Z,3.31
2023-02-06T00:26:18.386Z,3.44
2023-02-06T00:29:03.662Z,3.21
2023-02-06T00:31:48.617Z,3.21
2023-02-06T00:34:33.570Z,3.05
2023-02-06T00:37:18.714Z,3.12
2023-02-06T00:40:03.872Z,3.02
2023-02-06T00:42:48.674Z,2.96
2023-02-06T00:45:34.209Z,2.85
2023-02-06T00:48:19.571Z,2.80
2023-02-06T00:51:04.898Z,2.72
2023-02-06T00:53:51.204Z,2.66
2023-02-06T00:56:36.392Z,2.64
2023-02-06T00:59:22.070Z,2.65
2023-02-06T01:02:06.805Z,2.64
2023-02-06T01:04:51.971Z,2.50
2023-02-06T01:07:39.347Z,2.49
2023-02-06T01:10:24.536Z,2.37
2023-02-06T01:13:10.700Z,2.38
2023-02-06T01:15:55.559Z,2.30
2023-02-06T01:18:40.914Z,2.34
2023-02-06T01:21:26.263Z,2.25
2023-02-06T01:24:11.412Z,2.31
2023-02-06T01:26:56.576Z,2.28
2023-02-06T01:29:41.450Z,2.19
2023-02-06T01:32:26.575Z,2.24
2023-02-06T01:35:12.212Z,2.14
2023-02-06T01:37:57.144Z,2.07
2023-02-06T01:40:42.044Z,1.84
2023-02-06T01:43:33.567Z,1.75
2023-02-06T01:46:18.736Z,1.77
2023-02-06T01:49:06.741Z,1.78
2023-02-06T01:51:56.204Z,1.85
2023-02-06T01:54:43.063Z,1.86
2023-02-06T01:57:29.280Z,2.02
2023-02-06T02:00:14.635Z,2.18
2023-02-06T02:03:01.353Z,2.25
2023-02-06T02:05:48.722Z,2.33
2023-02-06T02:08:38.188Z,2.17
2023-02-06T02:11:30.589Z,2.10
2023-02-06T02:14:16.757Z,2.05
2023-02-06T02:17:01.812Z,2.01
2023-02-06T02:20:13.250Z,1.90
2023-02-06T02:23:06.028Z,1.93
2023-02-06T02:26:03.931Z,1.96
2023-02-06T02:29:27.729Z,1.85
2023-02-06T02:32:38.522Z,1.81
2023-02-06T02:35:31.019Z,1.78
2023-02-06T02:38:16.359Z,1.80
2023-02-06T02:41:10.704Z,1.72
2023-02-06T02:44:08.633Z,1.70
2023-02-06T02:46:56.405Z,1.67
2023-02-06T02:49:45.170Z,1.66
2023-02-06T02:52:29.816Z,1.79
2023-02-06T02:55:21.385Z,1.67
2023-02-06T02:58:14.435Z,1.66
2023-02-06T03:01:11.409Z,1.57
2023-02-06T03:04:00.999Z,1.62
2023-02-06T03:07:03.384Z,1.55
2023-02-06T03:10:09.694Z,1.63
2023-02-06T03:13:03.728Z,1.67
2023-02-06T03:16:08.628Z,1.64
2023-02-06T03:19:13.390Z,1.66
2023-02-06T03:22:00.137Z,1.76
2023-02-06T03:24:46.125Z,1.67
2023-02-06T03:27:32.157Z,1.57
2023-02-06T03:30:19.191Z,1.60
2023-02-06T03:33:07.542Z,1.59
2023-02-06T03:35:55.100Z,1.65
2023-02-06T03:38:40.358Z,1.47
2023-02-06T03:41:30.063Z,1.52
2023-02-06T03:44:21.574Z,1.31
2023-02-06T03:47:10.567Z,1.35
2023-02-06T03:49:58.905Z,1.32
2023-02-06T03:52:48.960Z,1.25
2023-02-06T03:55:36.989Z,1.24
2023-02-06T03:58:24.467Z,1.13
2023-02-06T04:01:11.553Z,1.14
2023-02-06T04:03:58.524Z,1.04
2023-02-06T04:06:43.975Z,1.08
2023-02-06T04:09:28.906Z,1.08
2023-02-06T04:12:15.253Z,1.07
2023-02-06T04:15:00.357Z,1.06
2023-02-06T04:17:58.977Z,1.19
2023-02-06T04:20:44.634Z,1.14
2023-02-06T04:23:29.570Z,1.15
2023-02-06T04:26:14.528Z,1.09
2023-02-06T04:28:59.490Z,0.89
2023-02-06T04:31:44.539Z,0.88
2023-02-06T04:34:29.808Z,0.87
2023-02-06T04:37:14.872Z,0.73
2023-02-06T04:39:59.669Z,0.78
2023-02-06T04:42:45.936Z,0.95
2023-02-06T04:45:30.843Z,0.67
2023-02-06T04:48:16.004Z,0.57
2023-02-06T04:51:00.904Z,0.67
2023-02-06T04:53:46.079Z,0.69
2023-02-06T04:56:31.073Z,0.57
2023-02-06T04:59:16.303Z,0.59
2023-02-06T05:02:01.443Z,0.52
2023-02-06T05:04:46.269Z,0.46
2023-02-06T05:07:31.303Z,0.57
2023-02-06T05:10:16.416Z,0.79
2023-02-06T05:13:01.590Z,0.55
2023-02-06T05:15:46.693Z,0.55
2023-02-06T05:18:31.610Z,0.78
2023-02-06T05:21:16.726Z,0.44
2023-02-06T05:24:01.470Z,0.54
2023-02-06T05:26:46.698Z,0.42
2023-02-06T05:29:31.511Z,0.28
2023-02-06T05:32:18.056Z,0.40
2023-02-06T05:35:03.215Z,0.46
2023-02-06T05:37:48.162Z,0.54
2023-02-06T05:40:33.221Z,0.54
2023-02-06T05:43:18.012Z,0.42
2023-02-06T05:46:03.066Z,0.45
2023-02-06T05:48:48.044Z,0.54
2023-02-06T05:51:32.944Z,0.35
2023-02-06T05:54:18.348Z,0.39
2023-02-06T05:57:04.072Z,0.51
2023-02-06T05:59:48.951Z,0.44
2023-02-06T06:02:33.821Z,0.50
2023-02-06T06:05:18.956Z,0.51
2023-02-06T06:08:03.937Z,0.37
2023-02-06T06:10:52.327Z,0.56
2023-02-06T06:13:37.400Z,0.55
2023-02-06T06:16:22.536Z,0.43
2023-02-06T06:19:07.466Z,0.31
2023-02-06T06:21:52.529Z,0.35
2023-02-06T06:24:37.802Z,0.34
2023-02-06T06:27:22.608Z,0.40
2023-02-06T06:30:08.057Z,0.49
2023-02-06T06:32:52.893Z,0.45
2023-02-06T06:35:37.914Z,0.38
2023-02-06T06:38:23.111Z,0.33
2023-02-06T06:41:08.203Z,0.32
2023-02-06T06:43:57.177Z,0.28
2023-02-06T06:46:42.514Z,0.05
2023-02-06T06:49:29.037Z,0.20
2023-02-06T06:52:24.505Z,0.25
2023-02-06T06:55:10.595Z,0.25
2023-02-06T06:57:55.711Z,0.38
2023-02-06T07:00:40.856Z,0.39
2023-02-06T07:03:26.289Z,0.51
2023-02-06T07:06:11.876Z,0.54
2023-02-06T07:08:57.132Z,0.52
2023-02-06T07:11:42.974Z,0.80
2023-02-06T07:14:28.192Z,1.11
2023-02-06T07:17:13.314Z,1.14
2023-02-06T07:19:59.247Z,1.04
2023-02-06T07:22:44.121Z,1.16
2023-02-06T07:25:29.080Z,1.21
2023-02-06T07:28:14.098Z,1.32
2023-02-06T07:31:00.955Z,1.35
2023-02-06T07:33:45.686Z,1.34
2023-02-06T07:36:30.706Z,1.44
2023-02-06T07:39:15.561Z,1.45
2023-02-06T07:42:00.283Z,1.46
2023-02-06T07:44:45.450Z,1.48
2023-02-06T07:47:30.264Z,1.48
2023-02-06T07:50:15.557Z,1.59
2023-02-06T07:53:00.761Z,1.61
2023-02-06T07:55:45.744Z,1.66
2023-02-06T07:58:30.555Z,1.80
2023-02-06T08:01:15.819Z,1.87
2023-02-06T08:04:00.700Z,1.78
2023-02-06T08:06:45.955Z,1.87
2023-02-06T08:09:31.724Z,1.90
2023-02-06T08:12:16.867Z,1.95
2023-02-06T08:15:01.819Z,2.12
2023-02-06T08:17:47.630Z,2.12
2023-02-06T08:20:32.526Z,2.08
2023-02-06T08:23:19.684Z,1.96
2023-02-06T08:26:09.004Z,2.05
2023-02-06T08:28:55.726Z,2.23
2023-02-06T08:31:42.266Z,2.32
2023-02-06T08:34:27.546Z,2.15
2023-02-06T08:37:12.592Z,2.25
2023-02-06T08:39:57.553Z,2.15
2023-02-06T08:42:42.376Z,2.31
2023-02-06T08:45:27.474Z,2.37
2023-02-06T08:48:12.260Z,2.50
2023-02-06T08:51:05.103Z,2.63
2023-02-06T08:53:49.897Z,2.62
2023-02-06T08:56:36.558Z,2.42
2023-02-06T08:59:21.352Z,2.49
2023-02-06T09:02:08.265Z,2.53
2023-02-06T09:04:54.079Z,2.62
2023-02-06T09:07:39.001Z,2.90
2023-02-06T09:10:27.755Z,2.85
2023-02-06T09:13:13.273Z,2.66
2023-02-06T09:15:58.384Z,2.96
2023-02-06T09:18:43.761Z,2.97
2023-02-06T09:21:31.384Z,3.02
2023-02-06T09:24:16.351Z,3.06
2023-02-06T09:27:01.218Z,3.07
2023-02-06T09:29:48.007Z,2.99
2023-02-06T09:32:33.209Z,3.15
2023-02-06T09:35:18.231Z,3.25
2023-02-06T09:38:03.006Z,3.37
2023-02-06T09:40:48.115Z,3.02
2023-02-06T09:43:34.569Z,3.09
2023-02-06T09:46:27.199Z,2.81
2023-02-06T09:49:16.840Z,2.80
2023-02-06T09:52:26.072Z,3.40
2023-02-06T09:55:23.649Z,3.50
2023-02-06T09:58:15.933Z,3.16
2023-02-06T10:01:11.317Z,3.37
2023-02-06T10:04:10.076Z,3.55
2023-02-06T10:07:15.529Z,4.04
2023-02-06T10:10:11.753Z,4.10
2023-02-06T10:13:15.115Z,3.91
2023-02-06T10:16:18.684Z,3.71
2023-02-06T10:19:43.691Z,3.50
2023-02-06T10:22:40.140Z,3.13
2023-02-06T10:25:40.314Z,3.53
2023-02-06T10:28:29.400Z,3.86
2023-02-06T10:31:54.862Z,3.92
2023-02-06T10:34:56.417Z,3.95
2023-02-06T10:38:08.176Z,3.99
2023-02-06T10:41:09.086Z,4.32
2023-02-06T10:44:01.831Z,5.74
2023-02-06T10:46:50.651Z,7.04
2023-02-06T10:49:41.720Z,7.00
2023-02-06T10:52:30.733Z,7.30
2023-02-06T10:55:20.117Z,6.97
2023-02-06T10:58:25.078Z,7.14
2023-02-06T11:01:25.085Z,7.17
2023-02-06T11:04:17.546Z,6.92
2023-02-06T11:07:11.324Z,6.28
2023-02-06T11:09:56.875Z,5.00
2023-02-06T11:12:46.329Z,4.70
2023-02-06T11:15:36.671Z,4.46
2023-02-06T11:18:27.711Z,4.25
2023-02-06T11:21:15.255Z,6.74
2023-02-06T11:24:26.439Z,7.35
2023-02-06T11:27:18.808Z,5.66
2023-02-06T11:30:18.659Z,5.17
2023-02-06T11:33:26.594Z,6.97
2023-02-06T11:36:23.760Z,7.71
2023-02-06T11:39:25.334Z,7.02
2023-02-06T11:42:13.537Z,7.07
2023-02-06T11:44:58.394Z,6.64
2023-02-06T11:47:43.274Z,7.10
2023-02-06T11:50:34.506Z,7.07
2023-02-06T11:53:19.830Z,8.26
2023-02-06T11:56:18.292Z,7.59
2023-02-06T11:59:17.684Z,7.59
2023-02-06T12:02:26.517Z,7.44
2023-02-06T12:05:16.879Z,7.42
2023-02-06T12:08:07.063Z,6.15
2023-02-06T12:10:58.605Z,5.96
2023-02-06T12:13:48.935Z,5.95
2023-02-06T12:16:37.741Z,5.57
2023-02-06T12:19:35.385Z,5.60
2023-02-06T12:22:25.310Z,5.45
2023-02-06T12:25:27.044Z,4.72
2023-02-06T12:28:37.845Z,4.89
2023-02-06T12:31:38.226Z,5.08
2023-02-06T12:34:28.746Z,4.93
2023-02-06T12:37:36.326Z,5.39
2023-02-06T12:40:38.698Z,5.42
2023-02-06T12:43:23.597Z,5.08
2023-02-06T12:46:17.205Z,4.93
2023-02-06T12:49:17.012Z,5.16
2023-02-06T12:52:16.617Z,5.23
2023-02-06T12:55:19.383Z,5.20
2023-02-06T12:58:05.188Z,5.09
2023-02-06T13:01:30.158Z,4.77
2023-02-06T13:04:33.893Z,5.21
2023-02-06T13:07:24.896Z,5.24
2023-02-06T13:10:19.591Z,5.03
2023-02-06T13:13:05.181Z,4.89
2023-02-06T13:15:54.828Z,5.05
2023-02-06T13:18:44.433Z,5.67
2023-02-06T13:21:32.316Z,5.64
2023-02-06T13:24:19.192Z,5.54
2023-02-06T13:27:06.821Z,5.72
2023-02-06T13:29:53.846Z,5.67
2023-02-06T13:32:42.604Z,5.59
2023-02-06T13:35:30.084Z,5.43
2023-02-06T13:38:28.341Z,5.47
2023-02-06T13:41:16.382Z,4.93
2023-02-06T13:44:11.613Z,5.10
2023-02-06T13:47:07.987Z,5.20
2023-02-06T13:50:07.050Z,5.43
2023-02-06T13:53:13.032Z,5.46
2023-02-06T13:56:21.281Z,5.54
2023-02-06T13:59:24.918Z,5.14
2023-02-06T14:02:29.901Z,5.37
2023-02-06T14:05:26.481Z,5.22
2023-02-06T14:08:22.521Z,5.20
2023-02-06T14:11:35.191Z,5.34
2023-02-06T14:14:34.407Z,5.36
2023-02-06T14:18:00.378Z,5.46
2023-02-06T14:21:35.266Z,5.31
2023-02-06T14:24:35.496Z,5.14
2023-02-06T14:27:33.076Z,5.02
2023-02-06T14:30:53.173Z,5.13
2023-02-06T14:33:57.186Z,5.17
2023-02-06T14:36:54.673Z,5.04
2023-02-06T14:40:04.711Z,4.78
2023-02-06T14:42:51.933Z,4.86
2023-02-06T14:45:42.361Z,4.77
2023-02-06T14:48:37.340Z,5.02
2023-02-06T14:51:30.728Z,5.18
2023-02-06T14:54:35.242Z,5.30
2023-02-06T14:57:24.661Z,5.13
2023-02-06T15:00:20.672Z,5.19
2023-02-06T15:03:13.740Z,5.16
2023-02-06T15:06:02.917Z,5.19
2023-02-06T15:08:49.901Z,5.11
2023-02-06T15:11:34.968Z,5.07
2023-02-06T15:14:26.930Z,5.02
2023-02-06T15:17:19.757Z,4.97
2023-02-06T15:20:24.370Z,4.90
2023-02-06T15:23:33.915Z,4.93
2023-02-06T15:26:29.496Z,4.91
2023-02-06T15:29:19.038Z,4.82
2023-02-06T15:32:08.104Z,4.89
2023-02-06T15:34:53.218Z,4.92
2023-02-06T15:37:38.289Z,4.92
2023-02-06T15:40:30.828Z,4.84
2023-02-06T15:43:22.412Z,4.70
2023-02-06T15:46:07.925Z,4.79
2023-02-06T15:48:55.960Z,4.83
2023-02-06T15:51:51.896Z,4.94
2023-02-06T15:54:40.136Z,4.92
2023-02-06T15:57:39.561Z,4.84
2023-02-06T16:00:29.253Z,4.80
2023-02-06T16:03:20.627Z,4.83
2023-02-06T16:06:14.369Z,4.93
2023-02-06T16:09:02.900Z,4.79
2023-02-06T16:11:53.238Z,4.76
2023-02-06T16:14:41.058Z,4.81
2023-02-06T16:17:41.009Z,4.85
2023-02-06T16:20:28.893Z,4.84
2023-02-06T16:23:43.260Z,4.96
2023-02-06T16:26:48.291Z,4.96
2023-02-06T16:29:33.470Z,4.95
2023-02-06T16:32:21.918Z,4.97
2023-02-06T16:35:06.717Z,4.90
2023-02-06T16:37:53.996Z,4.82
2023-02-06T16:40:38.982Z,4.94
2023-02-06T16:43:27.003Z,4.89
2023-02-06T16:46:12.126Z,4.93
2023-02-06T16:48:58.961Z,4.89
2023-02-06T16:51:45.295Z,4.82
2023-02-06T16:54:31.919Z,4.76
2023-02-06T16:57:25.812Z,4.81
2023-02-06T17:00:23.536Z,4.77
2023-02-06T17:03:11.251Z,4.71
2023-02-06T17:05:56.998Z,4.75
2023-02-06T17:08:42.607Z,4.80
2023-02-06T17:11:28.023Z,4.81
2023-02-06T17:14:13.137Z,4.88
2023-02-06T17:16:58.336Z,4.87
2023-02-06T17:19:43.721Z,4.84
2023-02-06T17:22:28.794Z,4.87
2023-02-06T17:25:13.720Z,4.89
2023-02-06T17:27:58.917Z,4.80
2023-02-06T17:30:44.750Z,4.75
2023-02-06T17:33:30.002Z,4.68
2023-02-06T17:36:22.210Z,4.60
2023-02-06T17:39:07.471Z,4.51
2023-02-06T17:41:52.669Z,4.52
2023-02-06T17:44:37.707Z,4.40
2023-02-06T17:47:22.687Z,4.33
2023-02-06T17:50:08.623Z,4.32
2023-02-06T17:52:55.561Z,4.26
2023-02-06T17:55:41.425Z,4.17
2023-02-06T17:58:27.818Z,4.13
2023-02-06T18:01:16.349Z,4.06
2023-02-06T18:04:03.560Z,4.04
2023-02-06T18:06:48.654Z,4.05
2023-02-06T18:09:33.679Z,3.97
2023-02-06T18:12:19.102Z,4.00
2023-02-06T18:15:04.947Z,4.04
2023-02-06T18:17:49.918Z,3.95
2023-02-06T18:20:35.722Z,3.93
2023-02-06T18:23:20.898Z,3.85
2023-02-06T18:26:08.168Z,3.90
2023-02-06T18:28:53.535Z,3.95
2023-02-06T18:31:38.435Z,3.94
2023-02-06T18:34:23.731Z,3.96
2023-02-06T18:37:09.842Z,3.99
2023-02-06T18:39:55.285Z,3.96
2023-02-06T18:42:53.735Z,3.99
2023-02-06T18:45:40.343Z,3.93
2023-02-06T18:48:25.183Z,3.96
2023-02-06T18:51:10.208Z,3.99
2023-02-06T18:53:55.359Z,3.89
2023-02-06T18:56:40.340Z,3.90
2023-02-06T18:59:25.274Z,4.01
2023-02-06T19:02:11.359Z,4.01
2023-02-06T19:04:58.377Z,3.98
2023-02-06T19:07:43.367Z,4.01
2023-02-06T19:10:29.145Z,4.02
2023-02-06T19:13:14.139Z,3.96
2023-02-06T19:16:14.002Z,3.95
2023-02-06T19:18:58.978Z,3.95
2023-02-06T19:21:44.391Z,3.89
2023-02-06T19:24:31.188Z,3.82
2023-02-06T19:27:16.128Z,3.77
2023-02-06T19:30:01.045Z,3.79
2023-02-06T19:32:47.997Z,3.75
2023-02-06T19:35:33.159Z,3.72
2023-02-06T19:38:18.375Z,3.66
2023-02-06T19:41:13.420Z,3.61
2023-02-06T19:44:02.738Z,3.49
2023-02-06T19:46:47.782Z,3.37
2023-02-06T19:49:32.704Z,3.19
2023-02-06T19:52:17.606Z,3.08
2023-02-06T19:55:03.503Z,3.13
2023-02-06T19:57:48.598Z,3.13
2023-02-06T20:00:33.223Z,3.09
2023-02-06T20:03:18.723Z,3.14
2023-02-06T20:06:05.944Z,3.12
2023-02-06T20:08:50.997Z,3.10
2023-02-06T20:11:36.078Z,3.10
2023-02-06T20:14:21.848Z,3.08
2023-02-06T20:17:07.001Z,3.11
2023-02-06T20:19:52.798Z,3.07
2023-02-06T20:22:39.799Z,3.08
2023-02-06T20:25:24.936Z,3.06
2023-02-06T20:28:10.033Z,3.06
2023-02-06T20:30:55.389Z,3.07
2023-02-06T20:33:41.007Z,3.02
2023-02-06T20:36:27.549Z,2.94
2023-02-06T20:39:13.506Z,2.83
2023-02-06T20:41:58.865Z,2.81
2023-02-06T20:44:44.048Z,2.79
2023-02-06T20:47:29.569Z,2.78
2023-02-06T20:50:14.702Z,2.78
2023-02-06T20:52:59.993Z,2.79
2023-02-06T20:55:45.065Z,2.79
2023-02-06T20:58:30.616Z,2.69
2023-02-06T21:01:22.196Z,2.66
2023-02-06T21:04:09.346Z,2.63
2023-02-06T21:06:55.351Z,2.52
2023-02-06T21:09:40.260Z,2.45
2023-02-06T21:12:25.403Z,2.46
2023-02-06T21:15:10.209Z,2.48
2023-02-06T21:17:55.377Z,2.47
2023-02-06T21:20:40.375Z,2.40
2023-02-06T21:23:25.469Z,2.38
2023-02-06T21:26:12.692Z,2.20
2023-02-06T21:28:59.156Z,2.22
2023-02-06T21:31:45.976Z,2.22
2023-02-06T21:34:30.649Z,2.08
2023-02-06T21:37:15.749Z,1.94
2023-02-06T21:40:00.560Z,1.72
2023-02-06T21:42:45.964Z,1.62
2023-02-06T21:45:30.828Z,1.59
2023-02-06T21:48:15.982Z,1.84
2023-02-06T21:51:11.296Z,1.94
2023-02-06T21:53:56.766Z,2.00
2023-02-06T21:56:41.573Z,1.94
2023-02-06T21:59:26.817Z,2.00
2023-02-06T22:02:12.061Z,1.99
2023-02-06T22:04:59.524Z,2.00
2023-02-06T22:07:44.740Z,1.95
2023-02-06T22:10:30.037Z,1.87
2023-02-06T22:13:15.277Z,1.94
2023-02-06T22:16:00.227Z,1.96
2023-02-06T22:18:45.516Z,1.86
2023-02-06T22:21:32.188Z,1.77
2023-02-06T22:24:17.827Z,1.70
2023-02-06T22:27:02.722Z,1.57
2023-02-06T22:29:48.247Z,1.69
2023-02-06T22:32:37.370Z,1.77
2023-02-06T22:35:22.362Z,1.83
2023-02-06T22:38:07.420Z,1.78
2023-02-06T22:41:01.455Z,1.65
2023-02-06T22:43:48.827Z,1.68
2023-02-06T22:46:36.685Z,1.73
2023-02-06T22:49:22.217Z,1.63
2023-02-06T22:52:27.296Z,1.57
2023-02-06T22:55:12.216Z,1.54
2023-02-06T22:57:57.248Z,1.40
2023-02-06T23:00:42.057Z,1.35
2023-02-06T23:03:27.242Z,1.24
2023-02-06T23:06:14.213Z,1.13
2023-02-06T23:09:01.079Z,1.06
2023-02-06T23:11:46.606Z,0.97
2023-02-06T23:14:32.620Z,0.92
2023-02-06T23:17:17.698Z,0.74
2023-02-06T23:20:02.521Z,0.61
2023-02-06T23:22:47.730Z,0.51
2023-02-06T23:25:33.556Z,0.33
2023-02-06T23:28:20.214Z,0.42
2023-02-06T23:31:05.931Z,0.31
2023-02-06T23:33:51.353Z,0.29
2023-02-06T23:36:37.454Z,0.31
2023-02-06T23:39:22.755Z,0.30
2023-02-06T23:42:07.557Z,0.25
2023-02-06T23:44:52.620Z,0.27
2023-02-06T23:47:37.353Z,0.29
2023-02-06T23:50:23.820Z,0.54
2023-02-06T23:53:08.826Z,0.63
2023-02-06T23:55:54.457Z,0.51
2023-02-06T23:58:39.972Z,0.54
